Time;durP1;ratioP1;P1;durP2;ratioP2;P2;SDS_P1;SDS_P2;PMS_P1;PMS_P2;Temp;Humidity;BMP_temperature;BMP_pressure;BME280_temperature;BME280_humidity;BME280_pressure;Samples;Min_cycle;Max_cycle;Signal;HPM_P1;HPM_P2
2022/05/06 00:00:12;;;;;;;22.30;15.70;;;;;;;;;;771567;180;918771;-66
2022/05/06 00:02:38;;;;;;;21.83;16.43;;;;;;;;;;779626;179;918099;-67
2022/05/06 00:05:04;;;;;;;33.40;20.97;;;;;;;;;;778711;179;918841;-66
2022/05/06 00:07:30;;;;;;;29.87;20.00;;;;;;;;;;777172;180;919987;-65
2022/05/06 00:09:56;;;;;;;26.93;20.30;;;;;;;;;;783286;180;919043;-65
2022/05/06 00:12:22;;;;;;;26.83;20.30;;;;;;;;;;775958;180;919462;-65
2022/05/06 00:14:48;;;;;;;28.27;21.60;;;;;;;;;;775771;180;927676;-65
2022/05/06 00:17:14;;;;;;;28.87;22.17;;;;;;;;;;783963;179;918946;-65
2022/05/06 00:19:41;;;;;;;26.47;20.50;;;;;;;;;;780078;178;920243;-65
2022/05/06 00:22:05;;;;;;;25.83;19.80;;;;;;;;;;779604;177;921322;-67
2022/05/06 00:24:31;;;;;;;28.27;20.53;;;;;;;;;;779746;179;920778;-65
2022/05/06 00:26:57;;;;;;;35.70;22.37;;;;;;;;;;781820;179;916461;-65
2022/05/06 00:29:23;;;;;;;31.70;21.90;;;;;;;;;;778563;179;920997;-65
2022/05/06 00:31:49;;;;;;;27.77;19.92;;;;;;;;;;778068;179;919067;-65
2022/05/06 00:34:15;;;;;;;27.93;21.90;;;;;;;;;;781137;180;920638;-65
2022/05/06 00:36:40;;;;;;;35.67;23.03;;;;;;;;;;778647;179;919857;-65
2022/05/06 00:39:06;;;;;;;27.60;21.77;;;;;;;;;;778374;180;917667;-65
2022/05/06 00:41:33;;;;;;;32.30;22.07;;;;;;;;;;783803;179;919309;-64
2022/05/06 00:43:59;;;;;;;28.23;21.37;;;;;;;;;;779084;180;922537;-65
2022/05/06 00:46:24;;;;;;;30.60;21.23;;;;;;;;;;771714;180;918511;-64
2022/05/06 00:48:51;;;;;;;34.70;22.42;;;;;;;;;;767378;183;920379;-65
2022/05/06 00:51:17;;;;;;;30.03;20.67;;;;;;;;;;773470;178;919907;-66
2022/05/06 00:53:43;;;;;;;35.60;22.87;;;;;;;;;;770973;178;919958;-65
2022/05/06 00:56:08;;;;;;;29.40;21.77;;;;;;;;;;770915;178;918697;-66
2022/05/06 00:58:34;;;;;;;32.60;22.97;;;;;;;;;;777785;177;914695;-65
2022/05/06 01:01:00;;;;;;;27.47;21.40;;;;;;;;;;772719;180;919542;-64
2022/05/06 01:03:26;;;;;;;37.53;22.20;;;;;;;;;;775161;180;925237;-65
2022/05/06 01:05:52;;;;;;;34.50;25.50;;;;;;;;;;777960;180;915917;-65
2022/05/06 01:08:17;;;;;;;35.42;24.42;;;;;;;;;;773715;179;920996;-65
2022/05/06 01:10:43;;;;;;;39.45;26.80;;;;;;;;;;775508;179;916863;-66
2022/05/06 01:13:09;;;;;;;33.07;25.00;;;;;;;;;;777294;179;911152;-64
2022/05/06 01:15:36;;;;;;;34.70;26.27;;;;;;;;;;772089;178;920613;-65
2022/05/06 01:18:01;;;;;;;41.60;24.83;;;;;;;;;;778156;179;921535;-64
2022/05/06 01:20:27;;;;;;;39.37;26.57;;;;;;;;;;778138;179;921267;-64
2022/05/06 01:22:53;;;;;;;34.37;25.07;;;;;;;;;;784546;179;919662;-63
2022/05/06 01:25:20;;;;;;;32.55;25.27;;;;;;;;;;780770;179;916334;-64
2022/05/06 01:27:45;;;;;;;37.45;23.87;;;;;;;;;;779796;179;920250;-65
2022/05/06 01:30:11;;;;;;;30.63;22.80;;;;;;;;;;784531;179;919292;-65
2022/05/06 01:32:37;;;;;;;30.67;23.70;;;;;;;;;;777830;179;921622;-65
2022/05/06 01:35:03;;;;;;;35.50;26.10;;;;;;;;;;779458;179;918771;-65
2022/05/06 01:37:29;;;;;;;34.37;21.90;;;;;;;;;;775069;180;920064;-64
2022/05/06 01:39:55;;;;;;;33.58;23.85;;;;;;;;;;766210;180;915240;-65
2022/05/06 01:42:21;;;;;;;31.33;23.70;;;;;;;;;;771543;180;911774;-65
2022/05/06 01:44:46;;;;;;;35.37;24.93;;;;;;;;;;777184;177;908970;-64
2022/05/06 01:47:16;;;;;;;39.13;22.80;;;;;;;;;;781953;179;899287;-64
2022/05/06 01:49:42;;;;;;;34.07;24.27;;;;;;;;;;774555;178;908647;-64
2022/05/06 01:52:09;;;;;;;36.37;24.73;;;;;;;;;;775389;179;906322;-64
2022/05/06 01:54:34;;;;;;;30.77;24.53;;;;;;;;;;781441;177;907244;-65
2022/05/06 01:57:00;;;;;;;38.60;26.10;;;;;;;;;;766399;180;905193;-65
2022/05/06 01:59:26;;;;;;;37.10;25.02;;;;;;;;;;775380;179;1012057;-65
2022/05/06 02:01:52;;;;;;;30.95;25.20;;;;;;;;;;774792;179;906347;-65
2022/05/06 02:06:49;;;;;;;35.83;24.70;;;;;;;;;;773311;179;919239;-64
2022/05/06 02:09:16;;;;;;;35.15;25.98;;;;;;;;;;774755;179;919273;-63
2022/05/06 02:11:41;;;;;;;32.27;23.00;;;;;;;;;;780043;179;919367;-63
2022/05/06 02:14:07;;;;;;;33.53;24.53;;;;;;;;;;771023;179;1028343;-65
2022/05/06 02:16:33;;;;;;;37.77;26.50;;;;;;;;;;776057;179;919814;-65
2022/05/06 02:18:59;;;;;;;32.17;25.05;;;;;;;;;;780712;179;919036;-65
2022/05/06 02:21:25;;;;;;;35.17;26.13;;;;;;;;;;773456;180;919872;-66
2022/05/06 02:23:51;;;;;;;34.73;26.60;;;;;;;;;;773829;180;919088;-65
2022/05/06 02:26:17;;;;;;;36.57;26.97;;;;;;;;;;774814;179;920049;-65
2022/05/06 02:28:43;;;;;;;43.70;28.77;;;;;;;;;;779524;180;920506;-65
2022/05/06 02:33:43;;;;;;;36.93;26.47;;;;;;;;;;777138;179;919142;-65
2022/05/06 02:36:06;;;;;;;40.70;29.30;;;;;;;;;;778446;180;919244;-65
2022/05/06 02:38:32;;;;;;;34.60;26.00;;;;;;;;;;775444;179;918124;-65
2022/05/06 02:40:59;;;;;;;38.50;28.50;;;;;;;;;;775081;179;911410;-65
2022/05/06 02:43:24;;;;;;;44.17;29.40;;;;;;;;;;772813;179;1018079;-65
2022/05/06 02:45:49;;;;;;;42.57;30.13;;;;;;;;;;782005;178;920996;-65
2022/05/06 02:48:15;;;;;;;39.03;29.80;;;;;;;;;;775307;178;920327;-65
2022/05/06 02:50:43;;;;;;;42.08;29.92;;;;;;;;;;776022;177;922406;-65
2022/05/06 02:53:08;;;;;;;43.07;29.27;;;;;;;;;;779912;179;917098;-65
2022/05/06 02:55:34;;;;;;;44.60;29.50;;;;;;;;;;778003;179;915363;-65
2022/05/06 02:58:00;;;;;;;45.37;28.37;;;;;;;;;;774478;180;918977;-65
2022/05/06 03:00:27;;;;;;;41.08;30.95;;;;;;;;;;779642;180;919571;-65
2022/05/06 03:02:52;;;;;;;42.67;31.57;;;;;;;;;;767577;180;920468;-66
2022/05/06 03:05:18;;;;;;;38.37;28.93;;;;;;;;;;773485;179;919237;-66
2022/05/06 03:07:44;;;;;;;45.67;31.90;;;;;;;;;;775164;180;919251;-65
2022/05/06 03:10:09;;;;;;;44.00;30.03;;;;;;;;;;780396;179;918326;-65
2022/05/06 03:12:35;;;;;;;44.70;26.97;;;;;;;;;;769741;180;919277;-65
2022/05/06 03:15:04;;;;;;;41.30;26.60;;;;;;;;;;769517;179;939285;-66
2022/05/06 03:17:30;;;;;;;44.08;27.98;;;;;;;;;;780077;180;919470;-67
2022/05/06 03:19:56;;;;;;;39.23;26.70;;;;;;;;;;774481;180;919075;-66
2022/05/06 03:22:21;;;;;;;40.10;26.70;;;;;;;;;;772259;179;927161;-66
2022/05/06 03:24:47;;;;;;;47.40;30.15;;;;;;;;;;774800;179;919016;-66
2022/05/06 03:29:45;;;;;;;42.40;28.85;;;;;;;;;;773663;179;918874;-65
2022/05/06 03:32:11;;;;;;;46.30;28.67;;;;;;;;;;772723;179;1021436;-66
2022/05/06 03:34:37;;;;;;;43.43;30.00;;;;;;;;;;782580;180;919172;-66
2022/05/06 03:37:02;;;;;;;50.40;28.80;;;;;;;;;;775366;179;919522;-65
2022/05/06 03:39:28;;;;;;;55.20;29.57;;;;;;;;;;776629;179;919608;-66
2022/05/06 03:41:54;;;;;;;49.35;32.67;;;;;;;;;;778086;179;919409;-65
2022/05/06 03:44:20;;;;;;;50.67;32.33;;;;;;;;;;777888;179;919555;-65
2022/05/06 03:46:46;;;;;;;49.57;31.87;;;;;;;;;;776756;179;918862;-65
2022/05/06 03:49:12;;;;;;;49.43;30.83;;;;;;;;;;773351;180;919254;-64
2022/05/06 03:51:38;;;;;;;47.93;32.77;;;;;;;;;;780779;180;918935;-65
2022/05/06 03:54:03;;;;;;;48.10;31.57;;;;;;;;;;777109;178;918834;-64
2022/05/06 03:56:29;;;;;;;48.67;32.10;;;;;;;;;;775955;178;919638;-65
2022/05/06 03:58:55;;;;;;;50.70;31.53;;;;;;;;;;785304;179;1021709;-65
2022/05/06 04:01:21;;;;;;;49.30;31.90;;;;;;;;;;777660;179;919465;-65
2022/05/06 04:03:47;;;;;;;43.23;31.30;;;;;;;;;;775638;179;919176;-64
2022/05/06 04:06:14;;;;;;;47.53;31.63;;;;;;;;;;780062;179;918915;-65
2022/05/06 04:08:38;;;;;;;47.50;31.33;;;;;;;;;;774162;179;920450;-66
2022/05/06 04:11:04;;;;;;;46.57;31.23;;;;;;;;;;776743;177;918676;-66
2022/05/06 04:13:30;;;;;;;45.53;30.30;;;;;;;;;;774609;179;921545;-65
2022/05/06 04:15:56;;;;;;;46.67;30.93;;;;;;;;;;780791;179;918398;-65
2022/05/06 04:18:22;;;;;;;46.83;31.87;;;;;;;;;;776223;179;918681;-66
2022/05/06 04:25:51;;;;;;;45.20;29.90;;;;;;;;;;781663;179;919360;-67
2022/05/06 04:28:17;;;;;;;41.00;27.63;;;;;;;;;;775656;179;919640;-65
2022/05/06 04:30:43;;;;;;;39.88;26.45;;;;;;;;;;770714;180;919578;-66
2022/05/06 04:33:09;;;;;;;40.63;26.80;;;;;;;;;;776219;179;919561;-66
2022/05/06 04:35:35;;;;;;;38.43;24.63;;;;;;;;;;774324;179;1129041;-66
2022/05/06 04:38:01;;;;;;;36.53;26.07;;;;;;;;;;777109;179;919035;-65
2022/05/06 04:40:27;;;;;;;38.93;23.40;;;;;;;;;;771078;180;918577;-65
2022/05/06 04:42:53;;;;;;;31.63;23.87;;;;;;;;;;773832;180;919456;-65
2022/05/06 04:45:19;;;;;;;37.53;25.47;;;;;;;;;;777719;180;919231;-65
2022/05/06 04:47:44;;;;;;;40.23;25.70;;;;;;;;;;772423;180;919509;-64
2022/05/06 04:50:10;;;;;;;36.63;25.07;;;;;;;;;;770207;179;907740;-65
2022/05/06 04:52:36;;;;;;;38.27;26.50;;;;;;;;;;769892;181;919853;-65
2022/05/06 04:55:02;;;;;;;35.60;25.00;;;;;;;;;;772306;180;919402;-65
2022/05/06 04:57:28;;;;;;;39.77;25.07;;;;;;;;;;782993;179;919565;-65
2022/05/06 04:59:54;;;;;;;37.97;25.30;;;;;;;;;;778520;180;918751;-64
2022/05/06 05:02:20;;;;;;;35.67;25.03;;;;;;;;;;775937;179;1126723;-64
2022/05/06 05:04:46;;;;;;;43.83;27.87;;;;;;;;;;779091;179;919672;-64
2022/05/06 05:07:11;;;;;;;39.10;26.60;;;;;;;;;;772284;180;919447;-64
2022/05/06 05:09:37;;;;;;;39.83;27.03;;;;;;;;;;775718;178;919556;-64
2022/05/06 05:12:03;;;;;;;34.47;26.65;;;;;;;;;;781337;178;919056;-65
2022/05/06 05:14:29;;;;;;;37.33;25.03;;;;;;;;;;780224;179;918839;-65
2022/05/06 05:16:55;;;;;;;40.90;24.83;;;;;;;;;;776032;179;919439;-65
2022/05/06 05:19:21;;;;;;;35.50;24.77;;;;;;;;;;774485;179;918754;-64
2022/05/06 05:21:47;;;;;;;34.57;24.60;;;;;;;;;;782188;179;919666;-65
2022/05/06 05:24:13;;;;;;;35.97;22.93;;;;;;;;;;777147;179;1021514;-64
2022/05/06 05:26:39;;;;;;;34.37;24.83;;;;;;;;;;777730;180;920262;-66
2022/05/06 05:29:05;;;;;;;33.40;22.27;;;;;;;;;;781627;180;920233;-65
2022/05/06 05:31:30;;;;;;;38.70;22.80;;;;;;;;;;775672;178;904750;-64
2022/05/06 05:33:56;;;;;;;36.00;24.83;;;;;;;;;;773889;180;919259;-66
2022/05/06 05:36:22;;;;;;;39.30;24.80;;;;;;;;;;778492;180;919626;-65
2022/05/06 05:38:48;;;;;;;35.27;23.93;;;;;;;;;;776604;179;919621;-64
2022/05/06 05:41:14;;;;;;;36.20;25.07;;;;;;;;;;775790;179;918863;-65
2022/05/06 05:48:43;;;;;;;35.97;25.20;;;;;;;;;;777595;180;918772;-66
2022/05/06 05:51:09;;;;;;;37.50;26.60;;;;;;;;;;780115;180;919490;-66
2022/05/06 05:53:34;;;;;;;40.33;26.93;;;;;;;;;;777614;179;1021913;-65
2022/05/06 05:56:00;;;;;;;36.60;26.67;;;;;;;;;;783132;180;926309;-66
2022/05/06 05:58:26;;;;;;;38.90;28.20;;;;;;;;;;776968;180;919713;-65
2022/05/06 06:00:52;;;;;;;38.70;29.30;;;;;;;;;;773868;180;919732;-65
2022/05/06 06:03:18;;;;;;;44.97;27.90;;;;;;;;;;780267;180;942867;-65
2022/05/06 06:05:44;;;;;;;41.87;29.77;;;;;;;;;;773193;180;919791;-65
2022/05/06 06:08:10;;;;;;;40.03;27.90;;;;;;;;;;770328;178;919461;-65
2022/05/06 06:10:35;;;;;;;48.65;30.00;;;;;;;;;;776101;179;917561;-65
2022/05/06 06:13:04;;;;;;;39.67;26.40;;;;;;;;;;773021;178;952229;-65
2022/05/06 06:15:27;;;;;;;36.53;26.65;;;;;;;;;;765571;178;919334;-65
2022/05/06 06:17:53;;;;;;;42.57;27.80;;;;;;;;;;770238;180;921507;-66
2022/05/06 06:20:21;;;;;;;43.27;29.60;;;;;;;;;;771198;180;918634;-65
2022/05/06 06:22:45;;;;;;;40.50;27.83;;;;;;;;;;767173;179;918266;-64
2022/05/06 06:25:10;;;;;;;43.23;29.50;;;;;;;;;;773336;177;919391;-66
2022/05/06 06:27:36;;;;;;;42.23;28.83;;;;;;;;;;783364;179;725499;-65
2022/05/06 06:30:02;;;;;;;40.67;25.53;;;;;;;;;;785019;179;632011;-66
2022/05/06 06:32:28;;;;;;;39.07;28.57;;;;;;;;;;783757;179;626039;-65
2022/05/06 06:34:55;;;;;;;39.33;24.10;;;;;;;;;;787267;179;628867;-66
2022/05/06 06:37:20;;;;;;;37.80;26.57;;;;;;;;;;782643;179;626415;-66
2022/05/06 06:39:46;;;;;;;38.07;27.33;;;;;;;;;;780181;179;623268;-65
2022/05/06 06:42:13;;;;;;;38.17;26.10;;;;;;;;;;781930;179;641056;-66
2022/05/06 06:44:38;;;;;;;35.47;26.17;;;;;;;;;;777838;179;637090;-65
2022/05/06 06:47:09;;;;;;;33.20;24.67;;;;;;;;;;778570;179;919240;-67
2022/05/06 06:49:35;;;;;;;33.77;24.70;;;;;;;;;;778379;177;676533;-65
2022/05/06 06:52:01;;;;;;;33.97;22.87;;;;;;;;;;785416;179;619291;-66
2022/05/06 06:54:26;;;;;;;30.70;22.37;;;;;;;;;;776826;180;628707;-66
2022/05/06 06:56:52;;;;;;;32.90;21.70;;;;;;;;;;769409;180;655737;-65
2022/05/06 06:59:18;;;;;;;31.33;23.13;;;;;;;;;;778563;180;622475;-66
2022/05/06 07:01:44;;;;;;;28.17;21.70;;;;;;;;;;779878;179;919182;-66
2022/05/06 07:04:10;;;;;;;33.40;23.03;;;;;;;;;;779249;180;919300;-65
2022/05/06 07:14:10;;;;;;;33.73;24.20;;;;;;;;;;777159;179;633923;-65
2022/05/06 07:16:39;;;;;;;32.57;23.17;;;;;;;;;;779830;179;617881;-67
2022/05/06 07:19:02;;;;;;;31.20;21.60;;;;;;;;;;783708;179;638256;-66
2022/05/06 07:21:28;;;;;;;34.67;24.03;;;;;;;;;;779338;179;625792;-66
2022/05/06 07:23:54;;;;;;;34.87;25.50;;;;;;;;;;778390;179;637254;-67
2022/05/06 07:26:20;;;;;;;45.47;25.67;;;;;;;;;;781339;180;631697;-68
2022/05/06 07:28:46;;;;;;;40.47;26.57;;;;;;;;;;781334;180;628824;-66
2022/05/06 07:31:11;;;;;;;37.57;24.10;;;;;;;;;;781236;178;624930;-67
2022/05/06 07:33:37;;;;;;;34.03;26.30;;;;;;;;;;781899;177;625178;-67
2022/05/06 07:36:03;;;;;;;35.47;26.30;;;;;;;;;;782488;179;691856;-66
2022/05/06 07:38:29;;;;;;;36.97;25.77;;;;;;;;;;779780;179;623209;-64
2022/05/06 07:40:55;;;;;;;33.13;25.53;;;;;;;;;;780775;177;623834;-64
2022/05/06 07:43:21;;;;;;;42.17;27.50;;;;;;;;;;783181;178;628666;-64
2022/05/06 07:45:47;;;;;;;37.90;27.07;;;;;;;;;;775460;178;636251;-65
2022/05/06 07:48:13;;;;;;;46.57;28.73;;;;;;;;;;771874;179;629359;-64
2022/05/06 07:50:43;;;;;;;47.17;28.47;;;;;;;;;;787041;179;618920;-64
2022/05/06 07:53:04;;;;;;;46.80;30.60;;;;;;;;;;781558;180;632111;-64
2022/05/06 07:55:35;;;;;;;41.27;28.37;;;;;;;;;;782039;179;618837;-62
2022/05/06 07:57:57;;;;;;;40.43;28.07;;;;;;;;;;780538;180;628735;-63
2022/05/06 08:00:24;;;;;;;46.43;32.90;;;;;;;;;;778406;180;621339;-63
2022/05/06 08:05:22;;;;;;;44.27;30.30;;;;;;;;;;776861;178;627758;-63
2022/05/06 08:07:45;;;;;;;59.07;38.20;;;;;;;;;;777914;179;617135;-64
2022/05/06 08:10:11;;;;;;;56.27;35.80;;;;;;;;;;779481;179;638983;-64
2022/05/06 08:12:37;;;;;;;55.33;35.80;;;;;;;;;;783905;178;627647;-65
2022/05/06 08:15:03;;;;;;;61.20;40.07;;;;;;;;;;771420;180;623615;-65
2022/05/06 08:17:29;;;;;;;62.50;35.67;;;;;;;;;;770809;183;629400;-65
2022/05/06 08:19:55;;;;;;;60.80;40.40;;;;;;;;;;777644;179;631043;-65
2022/05/06 08:22:20;;;;;;;62.97;40.33;;;;;;;;;;782654;179;641675;-65
2022/05/06 08:24:47;;;;;;;66.40;37.73;;;;;;;;;;783230;179;653620;-65
2022/05/06 08:27:12;;;;;;;60.47;38.73;;;;;;;;;;774756;180;632965;-66
2022/05/06 08:29:39;;;;;;;60.67;36.77;;;;;;;;;;776232;180;627772;-66
2022/05/06 08:32:04;;;;;;;66.70;38.50;;;;;;;;;;787758;179;629193;-66
2022/05/06 08:34:30;;;;;;;62.43;42.43;;;;;;;;;;783880;179;629719;-67
2022/05/06 08:36:56;;;;;;;61.63;38.27;;;;;;;;;;780143;180;626815;-66
2022/05/06 08:39:22;;;;;;;65.57;41.87;;;;;;;;;;779461;179;670953;-65
2022/05/06 08:41:48;;;;;;;61.83;40.57;;;;;;;;;;771135;181;620874;-66
2022/05/06 08:51:48;;;;;;;67.50;44.80;;;;;;;;;;782187;178;624163;-67
2022/05/06 08:54:14;;;;;;;60.73;39.60;;;;;;;;;;777878;179;628029;-67
2022/05/06 08:56:40;;;;;;;76.70;44.77;;;;;;;;;;780169;179;636877;-67
2022/05/06 08:59:06;;;;;;;67.23;41.20;;;;;;;;;;787330;180;634093;-66
2022/05/06 09:01:32;;;;;;;64.80;41.87;;;;;;;;;;783294;179;613019;-66
2022/05/06 09:03:58;;;;;;;67.17;43.43;;;;;;;;;;781962;179;628139;-67
2022/05/06 09:06:25;;;;;;;72.53;40.87;;;;;;;;;;782496;179;617736;-68
2022/05/06 09:08:51;;;;;;;70.90;40.67;;;;;;;;;;782054;179;623905;-67
2022/05/06 09:11:16;;;;;;;73.90;44.60;;;;;;;;;;778091;180;629303;-66
2022/05/06 09:13:48;;;;;;;72.83;44.90;;;;;;;;;;780877;177;655686;-67
2022/05/06 09:18:46;;;;;;;70.23;44.10;;;;;;;;;;780151;179;628016;-66
2022/05/06 09:21:13;;;;;;;68.17;45.30;;;;;;;;;;779136;178;660176;-68
2022/05/06 09:23:37;;;;;;;67.00;43.17;;;;;;;;;;780723;178;706529;-66
2022/05/06 09:26:03;;;;;;;67.07;42.43;;;;;;;;;;780063;177;637153;-68
2022/05/06 09:28:29;;;;;;;68.83;42.50;;;;;;;;;;777377;178;627052;-66
2022/05/06 09:31:00;;;;;;;68.17;44.13;;;;;;;;;;778151;180;675290;-67
2022/05/06 09:33:26;;;;;;;71.70;47.70;;;;;;;;;;782291;180;633134;-67
2022/05/06 09:35:52;;;;;;;79.27;48.53;;;;;;;;;;781957;179;626688;-64
2022/05/06 09:38:18;;;;;;;81.43;51.50;;;;;;;;;;776633;179;619270;-63
2022/05/06 09:40:44;;;;;;;79.07;47.50;;;;;;;;;;778250;179;629921;-63
2022/05/06 09:43:10;;;;;;;76.40;45.00;;;;;;;;;;782961;179;614252;-63
2022/05/06 09:45:38;;;;;;;73.00;43.77;;;;;;;;;;775836;179;634834;-63
2022/05/06 09:48:04;;;;;;;75.67;45.53;;;;;;;;;;778643;177;640335;-63
2022/05/06 09:50:30;;;;;;;83.73;47.97;;;;;;;;;;780198;179;621615;-63
2022/05/06 09:52:59;;;;;;;75.97;48.87;;;;;;;;;;779574;177;633050;-63
2022/05/06 09:55:24;;;;;;;81.27;46.60;;;;;;;;;;780850;178;623235;-63
2022/05/06 09:57:50;;;;;;;81.37;47.53;;;;;;;;;;781663;179;627726;-63
2022/05/06 10:00:16;;;;;;;78.77;44.20;;;;;;;;;;781741;179;623088;-64
2022/05/06 10:02:42;;;;;;;90.00;52.23;;;;;;;;;;778772;179;633104;-64
2022/05/06 10:05:08;;;;;;;76.73;47.90;;;;;;;;;;777155;178;624352;-64
2022/05/06 10:07:34;;;;;;;90.70;52.60;;;;;;;;;;783061;176;615121;-63
2022/05/06 10:10:01;;;;;;;81.23;47.97;;;;;;;;;;778310;176;626532;-64
2022/05/06 10:12:27;;;;;;;84.40;48.40;;;;;;;;;;773818;179;919816;-66
2022/05/06 10:14:54;;;;;;;86.20;49.60;;;;;;;;;;782224;179;651873;-63
2022/05/06 10:17:25;;;;;;;95.27;57.47;;;;;;;;;;777916;179;627193;-66
2022/05/06 10:19:51;;;;;;;84.20;51.93;;;;;;;;;;780189;179;627011;-63
2022/05/06 10:22:18;;;;;;;87.23;49.60;;;;;;;;;;778368;179;618859;-64
2022/05/06 10:24:49;;;;;;;89.53;51.90;;;;;;;;;;782653;179;621233;-63
2022/05/06 10:27:15;;;;;;;95.30;55.27;;;;;;;;;;777462;179;631153;-64
2022/05/06 10:32:39;;;;;;;89.50;49.93;;;;;;;;;;776486;177;641402;-64
2022/05/06 10:35:08;;;;;;;85.40;48.63;;;;;;;;;;775786;179;619076;-63
2022/05/06 10:37:35;;;;;;;78.70;47.10;;;;;;;;;;777392;179;626008;-64
2022/05/06 10:40:01;;;;;;;87.60;51.83;;;;;;;;;;781600;179;631368;-66
2022/05/06 10:42:31;;;;;;;92.07;57.77;;;;;;;;;;776646;180;629790;-62
2022/05/06 10:44:56;;;;;;;88.10;54.63;;;;;;;;;;778406;177;630943;-62
2022/05/06 10:47:29;;;;;;;77.43;48.40;;;;;;;;;;776688;177;620959;-62
2022/05/06 10:49:55;;;;;;;84.50;51.07;;;;;;;;;;782499;179;618594;-62
2022/05/06 10:52:36;;;;;;;89.93;54.50;;;;;;;;;;777872;177;633289;-63
2022/05/06 10:55:03;;;;;;;118.97;68.30;;;;;;;;;;775618;179;641635;-64
2022/05/06 10:57:27;;;;;;;78.33;49.00;;;;;;;;;;776904;179;623523;-62
2022/05/06 10:59:53;;;;;;;88.20;50.30;;;;;;;;;;782859;179;642270;-63
2022/05/06 11:02:21;;;;;;;79.70;49.13;;;;;;;;;;778560;179;627756;-63
2022/05/06 11:04:49;;;;;;;80.10;52.57;;;;;;;;;;780697;179;622930;-64
2022/05/06 11:07:17;;;;;;;89.70;48.33;;;;;;;;;;780380;178;633568;-65
2022/05/06 11:09:41;;;;;;;94.30;54.33;;;;;;;;;;784555;177;616653;-64
2022/05/06 11:12:07;;;;;;;87.80;55.30;;;;;;;;;;778670;178;628617;-64
2022/05/06 11:14:33;;;;;;;94.03;53.80;;;;;;;;;;779135;177;623417;-65
2022/05/06 11:17:05;;;;;;;85.63;50.53;;;;;;;;;;782941;179;634929;-65
2022/05/06 11:19:31;;;;;;;119.83;65.43;;;;;;;;;;781845;179;629931;-65
2022/05/06 11:22:03;;;;;;;106.33;60.17;;;;;;;;;;778221;177;633992;-64
2022/05/06 11:24:29;;;;;;;107.03;63.20;;;;;;;;;;778529;179;628952;-64
2022/05/06 11:26:55;;;;;;;91.27;51.60;;;;;;;;;;783063;177;626371;-64
2022/05/06 11:29:20;;;;;;;96.53;57.57;;;;;;;;;;774706;179;629725;-66
2022/05/06 11:31:46;;;;;;;103.20;62.17;;;;;;;;;;778550;179;646778;-66
2022/05/06 11:34:12;;;;;;;109.13;65.27;;;;;;;;;;779281;179;622218;-64
2022/05/06 11:36:38;;;;;;;79.53;48.90;;;;;;;;;;777154;178;634516;-64
2022/05/06 11:39:06;;;;;;;94.50;59.30;;;;;;;;;;776840;177;627532;-65
2022/05/06 11:41:32;;;;;;;83.90;52.10;;;;;;;;;;777422;179;627143;-66
2022/05/06 11:43:57;;;;;;;112.50;66.97;;;;;;;;;;782015;179;623984;-65
2022/05/06 11:48:55;;;;;;;101.80;58.60;;;;;;;;;;779932;179;634239;-65
2022/05/06 11:51:21;;;;;;;77.33;50.47;;;;;;;;;;777890;179;631924;-65
2022/05/06 11:53:46;;;;;;;91.57;54.50;;;;;;;;;;781783;179;626216;-66
2022/05/06 11:56:12;;;;;;;73.50;48.80;;;;;;;;;;776787;179;625334;-65
2022/05/06 11:58:38;;;;;;;73.97;46.50;;;;;;;;;;776760;178;633231;-64
2022/05/06 12:01:04;;;;;;;75.13;50.17;;;;;;;;;;782557;179;629309;-66
2022/05/06 12:03:30;;;;;;;72.70;48.07;;;;;;;;;;777103;179;632538;-66
2022/05/06 12:05:58;;;;;;;73.97;47.03;;;;;;;;;;776100;179;618827;-65
2022/05/06 12:08:26;;;;;;;72.57;47.10;;;;;;;;;;782103;179;630295;-65
2022/05/06 12:10:51;;;;;;;67.90;44.40;;;;;;;;;;778696;179;668203;-68
2022/05/06 12:13:17;;;;;;;71.33;49.20;;;;;;;;;;778902;179;631116;-65
2022/05/06 12:15:44;;;;;;;80.17;47.57;;;;;;;;;;778434;179;629817;-65
2022/05/06 12:18:09;;;;;;;73.20;47.80;;;;;;;;;;783950;178;624046;-65
2022/05/06 12:20:36;;;;;;;85.37;60.13;;;;;;;;;;779562;179;633203;-66
2022/05/06 12:23:01;;;;;;;74.47;48.80;;;;;;;;;;779502;179;638882;-65
2022/05/06 12:25:27;;;;;;;78.40;47.97;;;;;;;;;;783827;179;634428;-65
2022/05/06 12:27:59;;;;;;;75.30;52.07;;;;;;;;;;779330;179;622428;-66
2022/05/06 12:30:24;;;;;;;61.20;38.63;;;;;;;;;;777754;179;650478;-68
2022/05/06 12:32:56;;;;;;;66.03;44.70;;;;;;;;;;778569;179;627199;-66
2022/05/06 12:35:22;;;;;;;82.70;48.57;;;;;;;;;;782777;177;615633;-67
2022/05/06 12:37:53;;;;;;;76.47;51.90;;;;;;;;;;779041;177;648678;-65
2022/05/06 12:40:19;;;;;;;67.07;44.93;;;;;;;;;;779389;179;629681;-66
2022/05/06 12:42:45;;;;;;;69.60;46.70;;;;;;;;;;777798;177;921510;-66
2022/05/06 12:45:11;;;;;;;75.40;50.77;;;;;;;;;;778670;179;642512;-68
2022/05/06 12:50:09;;;;;;;66.60;47.53;;;;;;;;;;777647;178;625183;-67
2022/05/06 12:52:35;;;;;;;68.27;47.00;;;;;;;;;;780072;179;707719;-67
2022/05/06 12:55:01;;;;;;;78.77;48.13;;;;;;;;;;766033;179;622756;-67
2022/05/06 12:57:28;;;;;;;72.37;48.43;;;;;;;;;;776418;179;644271;-67
2022/05/06 12:59:53;;;;;;;73.53;49.97;;;;;;;;;;776704;179;616470;-67
2022/05/06 13:02:19;;;;;;;74.60;46.07;;;;;;;;;;781731;179;636451;-67
2022/05/06 13:04:45;;;;;;;72.77;49.27;;;;;;;;;;779048;179;622162;-67
2022/05/06 13:07:10;;;;;;;92.47;56.30;;;;;;;;;;776902;178;712515;-67
2022/05/06 13:09:36;;;;;;;70.33;46.67;;;;;;;;;;780014;179;630161;-66
2022/05/06 13:12:02;;;;;;;86.53;54.37;;;;;;;;;;773832;179;624182;-67
2022/05/06 13:14:28;;;;;;;72.57;46.40;;;;;;;;;;780401;179;638705;-67
2022/05/06 13:16:54;;;;;;;63.13;41.80;;;;;;;;;;784732;179;642201;-67
2022/05/06 13:19:20;;;;;;;72.13;48.50;;;;;;;;;;779576;177;742151;-68
2022/05/06 13:21:46;;;;;;;87.10;51.47;;;;;;;;;;772670;177;653948;-69
2022/05/06 13:24:12;;;;;;;60.00;37.90;;;;;;;;;;773474;179;640465;-68
2022/05/06 13:26:37;;;;;;;66.23;47.07;;;;;;;;;;782995;179;638261;-69
2022/05/06 13:29:03;;;;;;;75.50;46.03;;;;;;;;;;778625;178;629168;-69
2022/05/06 13:31:29;;;;;;;75.73;45.27;;;;;;;;;;784170;179;632237;-68
2022/05/06 13:33:55;;;;;;;67.63;44.40;;;;;;;;;;786039;179;634379;-69
2022/05/06 13:36:21;;;;;;;60.43;42.67;;;;;;;;;;783110;178;633872;-68
2022/05/06 13:38:47;;;;;;;65.33;41.57;;;;;;;;;;780222;180;627199;-68
2022/05/06 13:41:13;;;;;;;67.10;43.50;;;;;;;;;;785960;179;627081;-68
2022/05/06 13:43:38;;;;;;;76.73;48.27;;;;;;;;;;781022;179;616984;-67
2022/05/06 13:46:04;;;;;;;91.90;54.83;;;;;;;;;;781207;179;629842;-68
2022/05/06 13:48:30;;;;;;;73.07;49.83;;;;;;;;;;779730;179;624515;-69
2022/05/06 13:50:56;;;;;;;63.30;39.53;;;;;;;;;;776237;179;639062;-68
2022/05/06 13:53:22;;;;;;;56.73;38.63;;;;;;;;;;779188;177;632532;-69
2022/05/06 14:00:51;;;;;;;73.23;45.03;;;;;;;;;;782773;179;621974;-66
2022/05/06 14:03:17;;;;;;;65.07;45.90;;;;;;;;;;778488;179;621231;-67
2022/05/06 14:05:43;;;;;;;74.83;49.73;;;;;;;;;;777804;180;632960;-66
2022/05/06 14:08:09;;;;;;;64.20;41.03;;;;;;;;;;781973;180;639025;-67
2022/05/06 14:10:35;;;;;;;78.67;44.20;;;;;;;;;;780647;179;633081;-62
2022/05/06 14:13:01;;;;;;;66.10;40.20;;;;;;;;;;777969;178;680053;-66
2022/05/06 14:15:27;;;;;;;60.67;38.43;;;;;;;;;;783968;177;656853;-67
2022/05/06 14:17:53;;;;;;;62.53;44.33;;;;;;;;;;778428;179;635137;-67
2022/05/06 14:20:18;;;;;;;60.90;39.20;;;;;;;;;;777128;179;633369;-68
2022/05/06 14:22:44;;;;;;;52.33;38.97;;;;;;;;;;778480;179;627100;-67
2022/05/06 14:25:10;;;;;;;54.07;37.67;;;;;;;;;;778149;180;616978;-67
2022/05/06 14:27:36;;;;;;;58.47;41.60;;;;;;;;;;778995;179;657519;-68
2022/05/06 14:30:02;;;;;;;58.30;42.50;;;;;;;;;;777224;179;620035;-68
2022/05/06 14:32:28;;;;;;;79.43;50.67;;;;;;;;;;783065;180;625878;-66
2022/05/06 14:35:15;;;;;;;90.40;47.73;;;;;;;;;;779801;179;628690;-67
2022/05/06 14:37:20;;;;;;;72.57;45.27;;;;;;;;;;774478;179;662080;-67
2022/05/06 14:39:46;;;;;;;64.00;42.80;;;;;;;;;;781223;179;627673;-67
2022/05/06 14:42:11;;;;;;;73.33;45.37;;;;;;;;;;781157;178;651252;-67
2022/05/06 14:44:37;;;;;;;68.77;45.80;;;;;;;;;;779643;179;636073;-68
2022/05/06 14:47:05;;;;;;;64.57;43.50;;;;;;;;;;780298;179;633574;-67